Time;durP1;ratioP1;P1;durP2;ratioP2;P2;SDS_P1;SDS_P2;PMS_P1;PMS_P2;Temp;Humidity;BMP_temperature;BMP_pressure;BME280_temperature;BME280_humidity;BME280_pressure;Samples;Min_cycle;Max_cycle;Signal;HPM_P1;HPM_P2
2020/12/10 00:00:10;;;;;;;99.90;52.33;;;;;;;;;;5059495;28;20470;-62
2020/12/10 00:02:36;;;;;;;120.13;56.47;;;;;;;;;;5069674;28;20459;-62
2020/12/10 00:05:03;;;;;;;103.27;53.07;;;;;;;;;;5070352;28;20466;-62
2020/12/10 00:07:30;;;;;;;99.60;52.10;;;;;;;;;;5071921;28;20439;-62
2020/12/10 00:09:57;;;;;;;104.50;54.00;;;;;;;;;;5070559;28;20490;-62
2020/12/10 00:12:24;;;;;;;104.10;50.57;;;;;;;;;;5071073;28;20561;-62
2020/12/10 00:14:53;;;;;;;103.83;53.53;;;;;;;;;;5070176;28;20450;-63
2020/12/10 00:17:23;;;;;;;112.37;53.37;;;;;;;;;;5070464;28;20494;-62
2020/12/10 00:19:50;;;;;;;111.93;57.70;;;;;;;;;;5067564;28;20486;-62
2020/12/10 00:22:16;;;;;;;113.10;58.27;;;;;;;;;;5070630;28;20985;-62
2020/12/10 00:24:43;;;;;;;128.03;60.77;;;;;;;;;;5070760;28;20443;-62
2020/12/10 00:27:10;;;;;;;136.17;62.20;;;;;;;;;;5061220;28;20970;-62
2020/12/10 00:29:37;;;;;;;133.83;60.27;;;;;;;;;;5074246;28;21008;-62
2020/12/10 00:32:04;;;;;;;133.20;58.47;;;;;;;;;;5069999;28;20463;-62
2020/12/10 00:34:30;;;;;;;124.03;58.87;;;;;;;;;;5071850;28;20999;-62
2020/12/10 00:36:57;;;;;;;124.00;60.57;;;;;;;;;;5075405;28;20443;-62
2020/12/10 00:39:24;;;;;;;137.00;62.23;;;;;;;;;;5074651;28;20532;-62
2020/12/10 00:41:53;;;;;;;139.87;64.10;;;;;;;;;;5075270;28;20439;-63
2020/12/10 00:44:21;;;;;;;143.73;60.27;;;;;;;;;;5074997;28;20447;-62
2020/12/10 00:46:47;;;;;;;121.67;58.70;;;;;;;;;;5074632;28;20983;-63
2020/12/10 00:49:14;;;;;;;113.63;58.03;;;;;;;;;;5070679;28;20494;-62
2020/12/10 00:51:41;;;;;;;119.07;58.40;;;;;;;;;;5073977;28;20906;-61
2020/12/10 00:54:07;;;;;;;125.73;59.00;;;;;;;;;;5072965;28;20477;-62
2020/12/10 00:56:37;;;;;;;122.70;59.50;;;;;;;;;;5072203;28;20450;-62
2020/12/10 00:59:03;;;;;;;123.20;60.23;;;;;;;;;;5074014;28;20458;-62
2020/12/10 01:01:31;;;;;;;122.37;59.20;;;;;;;;;;5073243;28;20934;-62
2020/12/10 01:03:57;;;;;;;105.73;54.40;;;;;;;;;;5068641;28;20463;-62
2020/12/10 01:06:24;;;;;;;101.80;52.90;;;;;;;;;;5072955;28;20462;-62
2020/12/10 01:08:50;;;;;;;106.03;55.20;;;;;;;;;;5072936;28;20486;-62
2020/12/10 01:11:17;;;;;;;101.73;56.47;;;;;;;;;;5073092;28;20954;-62
2020/12/10 01:13:44;;;;;;;111.03;56.23;;;;;;;;;;5072732;28;20462;-63
2020/12/10 01:16:11;;;;;;;101.70;51.87;;;;;;;;;;5073318;28;20461;-62
2020/12/10 01:18:38;;;;;;;97.17;52.70;;;;;;;;;;5066094;28;20486;-63
2020/12/10 01:21:05;;;;;;;102.27;57.10;;;;;;;;;;5071425;28;20970;-63
2020/12/10 01:23:33;;;;;;;100.83;55.00;;;;;;;;;;5073132;28;20449;-62
2020/12/10 01:26:00;;;;;;;104.23;55.90;;;;;;;;;;5070744;28;20825;-63
2020/12/10 01:28:26;;;;;;;104.43;54.30;;;;;;;;;;5072238;28;20462;-63
2020/12/10 01:30:53;;;;;;;96.33;56.30;;;;;;;;;;5073388;28;20447;-63
2020/12/10 01:33:20;;;;;;;96.07;53.73;;;;;;;;;;5072258;28;20467;-63
2020/12/10 01:35:47;;;;;;;104.73;54.77;;;;;;;;;;5072189;28;20807;-63
2020/12/10 01:38:14;;;;;;;92.13;53.17;;;;;;;;;;5070750;28;20447;-63
2020/12/10 01:40:40;;;;;;;87.77;52.90;;;;;;;;;;5071769;28;20465;-63
2020/12/10 01:43:07;;;;;;;96.57;55.00;;;;;;;;;;5071449;28;20453;-63
2020/12/10 01:45:34;;;;;;;93.80;53.80;;;;;;;;;;5072522;28;20823;-63
2020/12/10 01:48:00;;;;;;;105.93;55.37;;;;;;;;;;5071820;28;20455;-62
2020/12/10 01:50:27;;;;;;;101.17;55.10;;;;;;;;;;5054156;28;564062;-62
2020/12/10 01:52:55;;;;;;;101.00;58.07;;;;;;;;;;5073475;28;20449;-63
2020/12/10 01:55:22;;;;;;;99.57;57.10;;;;;;;;;;5073103;28;20505;-62
2020/12/10 01:57:48;;;;;;;98.57;58.73;;;;;;;;;;5073492;28;20454;-62
2020/12/10 02:00:15;;;;;;;98.10;54.50;;;;;;;;;;5074118;28;20463;-63
2020/12/10 02:02:41;;;;;;;108.40;57.57;;;;;;;;;;5069081;28;20828;-62
2020/12/10 02:05:08;;;;;;;102.47;55.70;;;;;;;;;;5067035;28;20465;-62
2020/12/10 02:07:35;;;;;;;103.40;57.43;;;;;;;;;;5072825;28;20463;-63
2020/12/10 02:10:02;;;;;;;100.90;58.27;;;;;;;;;;5073273;28;20493;-63
2020/12/10 02:12:29;;;;;;;97.87;53.37;;;;;;;;;;5072668;28;20853;-63
2020/12/10 02:14:55;;;;;;;92.10;54.03;;;;;;;;;;5072501;28;20462;-63
2020/12/10 02:17:22;;;;;;;108.87;58.23;;;;;;;;;;5072833;28;20474;-63
2020/12/10 02:19:48;;;;;;;98.10;55.47;;;;;;;;;;5072350;28;20483;-63
2020/12/10 02:22:15;;;;;;;102.20;57.83;;;;;;;;;;5073719;28;20438;-63
2020/12/10 02:24:42;;;;;;;94.47;56.20;;;;;;;;;;5072462;28;20968;-63
2020/12/10 02:27:09;;;;;;;102.10;56.73;;;;;;;;;;5071561;28;20447;-63
2020/12/10 02:29:35;;;;;;;101.60;56.23;;;;;;;;;;5073445;28;20861;-63
2020/12/10 02:32:02;;;;;;;90.03;55.43;;;;;;;;;;5073099;28;20443;-63
2020/12/10 02:34:29;;;;;;;100.27;56.77;;;;;;;;;;5071551;28;20976;-63
2020/12/10 02:36:55;;;;;;;108.57;57.80;;;;;;;;;;5071924;28;20454;-63
2020/12/10 02:39:22;;;;;;;100.67;56.73;;;;;;;;;;5073019;28;20459;-63
2020/12/10 02:41:49;;;;;;;80.27;49.53;;;;;;;;;;5071964;28;20813;-63
2020/12/10 02:44:16;;;;;;;78.90;55.13;;;;;;;;;;5072891;28;21060;-63
2020/12/10 02:46:42;;;;;;;103.40;56.83;;;;;;;;;;5073394;28;20435;-62
2020/12/10 02:49:09;;;;;;;94.73;54.30;;;;;;;;;;5070147;28;20487;-62
2020/12/10 02:51:36;;;;;;;84.70;51.30;;;;;;;;;;5071307;28;20466;-63
2020/12/10 02:54:02;;;;;;;96.67;55.43;;;;;;;;;;5071311;28;20976;-63
2020/12/10 02:56:29;;;;;;;80.90;52.60;;;;;;;;;;5072740;28;20447;-63
2020/12/10 02:58:56;;;;;;;82.47;49.60;;;;;;;;;;5071828;28;20509;-63
2020/12/10 03:01:23;;;;;;;81.50;50.90;;;;;;;;;;5072978;28;20443;-62
2020/12/10 03:03:49;;;;;;;72.90;48.63;;;;;;;;;;5072078;28;20471;-62
2020/12/10 03:06:16;;;;;;;74.80;48.93;;;;;;;;;;5072285;28;20451;-63
2020/12/10 03:08:43;;;;;;;78.70;51.77;;;;;;;;;;5070503;28;20485;-62
2020/12/10 03:11:09;;;;;;;70.20;46.50;;;;;;;;;;5072332;28;20938;-63
2020/12/10 03:13:36;;;;;;;79.97;49.53;;;;;;;;;;5071363;28;20596;-62
2020/12/10 03:16:03;;;;;;;81.07;51.93;;;;;;;;;;5072477;28;20814;-62
2020/12/10 03:18:30;;;;;;;77.03;47.30;;;;;;;;;;5070879;28;21203;-62
2020/12/10 03:20:56;;;;;;;75.20;49.60;;;;;;;;;;5071946;28;20439;-62
2020/12/10 03:23:23;;;;;;;78.40;48.23;;;;;;;;;;5072044;28;20466;-62
2020/12/10 03:25:50;;;;;;;76.80;49.00;;;;;;;;;;5070811;28;20458;-62
2020/12/10 03:28:16;;;;;;;73.63;49.67;;;;;;;;;;5070735;28;20493;-62
2020/12/10 03:30:43;;;;;;;79.23;49.80;;;;;;;;;;5072056;28;20483;-63
2020/12/10 03:33:10;;;;;;;80.33;47.57;;;;;;;;;;5071245;28;20961;-62
2020/12/10 03:35:37;;;;;;;68.07;47.20;;;;;;;;;;5071725;28;20446;-62
2020/12/10 03:38:04;;;;;;;58.43;43.73;;;;;;;;;;5068607;28;20473;-62
2020/12/10 03:40:30;;;;;;;60.70;42.40;;;;;;;;;;5072167;28;20443;-62
2020/12/10 03:42:57;;;;;;;65.07;46.23;;;;;;;;;;5069695;28;20469;-62
2020/12/10 03:45:23;;;;;;;63.23;43.30;;;;;;;;;;5078242;28;20468;-62
2020/12/10 03:47:50;;;;;;;61.37;44.87;;;;;;;;;;5078039;28;20466;-63
2020/12/10 03:50:17;;;;;;;62.23;43.67;;;;;;;;;;5079040;28;21126;-62
2020/12/10 03:52:44;;;;;;;65.90;45.23;;;;;;;;;;5078214;28;20465;-62
2020/12/10 03:55:11;;;;;;;60.40;43.20;;;;;;;;;;5079244;28;20451;-62
2020/12/10 03:57:37;;;;;;;61.37;41.40;;;;;;;;;;5078336;28;20465;-63
2020/12/10 04:00:04;;;;;;;55.80;42.00;;;;;;;;;;5079978;28;20458;-62
2020/12/10 04:02:31;;;;;;;53.17;39.93;;;;;;;;;;5075155;28;20513;-62
2020/12/10 04:04:58;;;;;;;59.17;48.87;;;;;;;;;;5070985;28;20466;-62
2020/12/10 04:07:25;;;;;;;59.97;47.87;;;;;;;;;;5071636;28;20454;-62
2020/12/10 04:09:52;;;;;;;58.70;48.23;;;;;;;;;;5062320;28;20998;-62
2020/12/10 04:12:18;;;;;;;58.87;47.57;;;;;;;;;;5071675;28;20455;-62
2020/12/10 04:14:45;;;;;;;56.73;47.80;;;;;;;;;;5070030;28;21004;-63
2020/12/10 04:17:11;;;;;;;60.23;49.90;;;;;;;;;;5071315;28;20450;-62
2020/12/10 04:19:38;;;;;;;56.77;47.90;;;;;;;;;;5070451;28;20486;-62
2020/12/10 04:22:05;;;;;;;57.20;46.97;;;;;;;;;;5071865;28;20439;-62
2020/12/10 04:24:32;;;;;;;59.93;47.80;;;;;;;;;;5070825;28;20467;-62
2020/12/10 04:26:59;;;;;;;63.27;47.07;;;;;;;;;;5071271;28;20453;-62
2020/12/10 04:29:25;;;;;;;60.13;45.33;;;;;;;;;;5064203;28;20825;-62
2020/12/10 04:31:52;;;;;;;64.90;47.90;;;;;;;;;;5072066;28;20466;-62
2020/12/10 04:34:18;;;;;;;52.03;44.37;;;;;;;;;;5073112;28;20460;-62
2020/12/10 04:36:47;;;;;;;59.23;48.87;;;;;;;;;;5070716;28;20482;-62
2020/12/10 04:39:14;;;;;;;59.80;46.87;;;;;;;;;;5060665;28;20855;-62
2020/12/10 04:41:42;;;;;;;56.70;46.00;;;;;;;;;;5073450;28;20443;-62
2020/12/10 04:44:09;;;;;;;61.63;46.37;;;;;;;;;;5069436;28;21030;-62
2020/12/10 04:46:36;;;;;;;57.07;46.17;;;;;;;;;;5063615;28;20444;-63
2020/12/10 04:49:03;;;;;;;62.17;45.33;;;;;;;;;;5070302;28;20871;-62
2020/12/10 04:51:30;;;;;;;62.17;47.60;;;;;;;;;;5071716;28;20992;-63
2020/12/10 04:53:56;;;;;;;62.90;47.60;;;;;;;;;;5069973;28;20486;-62
2020/12/10 04:56:23;;;;;;;57.93;46.37;;;;;;;;;;5071079;28;20439;-62
2020/12/10 04:58:50;;;;;;;56.80;46.80;;;;;;;;;;5064283;28;20986;-63
2020/12/10 05:01:18;;;;;;;59.83;45.87;;;;;;;;;;5065364;28;20455;-64
2020/12/10 05:03:46;;;;;;;57.30;44.90;;;;;;;;;;5070628;28;20513;-63
2020/12/10 05:06:14;;;;;;;53.40;43.23;;;;;;;;;;5071392;28;20530;-63
2020/12/10 05:08:40;;;;;;;59.60;45.57;;;;;;;;;;5070658;28;20487;-63
2020/12/10 05:11:07;;;;;;;62.47;46.63;;;;;;;;;;5070835;28;20944;-63
2020/12/10 05:13:34;;;;;;;65.67;48.17;;;;;;;;;;5069839;28;20468;-63
2020/12/10 05:16:01;;;;;;;60.33;48.60;;;;;;;;;;5074453;28;20949;-63
2020/12/10 05:18:28;;;;;;;59.80;46.10;;;;;;;;;;5074223;28;21009;-62
2020/12/10 05:20:56;;;;;;;64.43;45.80;;;;;;;;;;5074304;28;20519;-63
2020/12/10 05:23:30;;;;;;;61.00;46.47;;;;;;;;;;5074419;28;20451;-63
2020/12/10 05:25:57;;;;;;;68.13;48.17;;;;;;;;;;5074421;28;20556;-64
2020/12/10 05:28:25;;;;;;;64.57;48.23;;;;;;;;;;5073350;28;20491;-63
2020/12/10 05:31:02;;;;;;;62.00;46.90;;;;;;;;;;5073292;28;20834;-63
2020/12/10 05:33:29;;;;;;;64.87;47.37;;;;;;;;;;5074200;28;21091;-65
2020/12/10 05:36:05;;;;;;;66.93;48.93;;;;;;;;;;5073627;28;20443;-63
2020/12/10 05:38:32;;;;;;;69.90;48.73;;;;;;;;;;5074302;28;20471;-62
2020/12/10 05:41:14;;;;;;;67.87;48.20;;;;;;;;;;5073914;28;20474;-62
2020/12/10 05:43:40;;;;;;;76.90;52.60;;;;;;;;;;5071545;28;20988;-62
2020/12/10 05:46:13;;;;;;;72.60;49.33;;;;;;;;;;5074203;28;20456;-62
2020/12/10 05:48:40;;;;;;;87.00;54.13;;;;;;;;;;5072782;28;21025;-62
2020/12/10 05:51:08;;;;;;;77.13;51.57;;;;;;;;;;5074120;28;20852;-61
2020/12/10 05:53:41;;;;;;;79.80;52.70;;;;;;;;;;5074026;28;20443;-63
2020/12/10 05:56:10;;;;;;;94.73;55.43;;;;;;;;;;5074215;28;20895;-63
2020/12/10 05:58:46;;;;;;;82.20;52.83;;;;;;;;;;5073152;28;20475;-63
2020/12/10 06:01:17;;;;;;;92.63;58.07;;;;;;;;;;5073812;28;20918;-62
2020/12/10 06:03:47;;;;;;;88.87;55.40;;;;;;;;;;5073269;28;20451;-63
2020/12/10 06:06:17;;;;;;;91.03;55.03;;;;;;;;;;5074140;28;20451;-62
2020/12/10 06:08:43;;;;;;;81.37;53.53;;;;;;;;;;5072411;28;20479;-62
2020/12/10 06:11:17;;;;;;;93.10;57.10;;;;;;;;;;5072915;28;21000;-62
2020/12/10 06:13:44;;;;;;;94.97;58.37;;;;;;;;;;5072854;28;20439;-61
2020/12/10 06:16:18;;;;;;;98.77;58.87;;;;;;;;;;5072672;28;20470;-64
2020/12/10 06:18:54;;;;;;;92.77;57.23;;;;;;;;;;5074070;28;20482;-63
2020/12/10 06:21:32;;;;;;;98.13;58.17;;;;;;;;;;5072864;28;20979;-62
2020/12/10 06:23:58;;;;;;;102.00;59.27;;;;;;;;;;5074041;28;20427;-63
2020/12/10 06:26:38;;;;;;;112.70;64.70;;;;;;;;;;5071915;28;20455;-62
2020/12/10 06:29:21;;;;;;;139.87;69.33;;;;;;;;;;5073368;28;20493;-63
2020/12/10 06:32:08;;;;;;;137.70;70.53;;;;;;;;;;5073234;28;20454;-62
2020/12/10 06:34:36;;;;;;;139.80;69.60;;;;;;;;;;5071206;28;20816;-62
2020/12/10 06:37:21;;;;;;;140.27;72.70;;;;;;;;;;5072508;28;21024;-62
2020/12/10 06:39:48;;;;;;;138.33;72.43;;;;;;;;;;5071947;28;20482;-62
2020/12/10 06:42:15;;;;;;;124.53;65.77;;;;;;;;;;5073458;28;20461;-62
2020/12/10 06:44:42;;;;;;;127.53;67.17;;;;;;;;;;5075211;28;20455;-63
2020/12/10 06:47:09;;;;;;;135.83;69.37;;;;;;;;;;5073152;28;20824;-62
2020/12/10 06:49:38;;;;;;;112.43;62.00;;;;;;;;;;5061766;28;20491;-63
2020/12/10 06:52:08;;;;;;;101.57;58.43;;;;;;;;;;5072697;28;20458;-63
2020/12/10 06:54:35;;;;;;;113.47;59.13;;;;;;;;;;5072184;28;20446;-62
2020/12/10 06:57:04;;;;;;;91.83;53.87;;;;;;;;;;5072530;28;20838;-63
2020/12/10 06:59:37;;;;;;;92.70;53.80;;;;;;;;;;5072525;28;20478;-62
2020/12/10 07:02:12;;;;;;;70.90;48.97;;;;;;;;;;5072490;28;20469;-63
2020/12/10 07:04:47;;;;;;;80.47;47.60;;;;;;;;;;5071304;28;21040;-63
2020/12/10 07:07:15;;;;;;;85.60;50.43;;;;;;;;;;5071532;28;20470;-63
2020/12/10 07:09:52;;;;;;;41.67;23.03;;;;;;;;;;5071203;28;20549;-66
2020/12/10 07:12:19;;;;;;;32.67;23.07;;;;;;;;;;5072291;28;20482;-63
2020/12/10 07:14:46;;;;;;;25.33;20.67;;;;;;;;;;5067550;28;20827;-64
2020/12/10 07:17:13;;;;;;;28.90;22.07;;;;;;;;;;5071673;28;20477;-64
2020/12/10 07:19:40;;;;;;;27.60;20.53;;;;;;;;;;5071507;28;21575;-66
2020/12/10 07:22:07;;;;;;;22.63;17.77;;;;;;;;;;5070729;28;20471;-66
2020/12/10 07:24:33;;;;;;;22.67;17.27;;;;;;;;;;5071126;28;20474;-66
2020/12/10 07:27:00;;;;;;;17.83;15.93;;;;;;;;;;5070803;28;20974;-67
2020/12/10 07:29:27;;;;;;;19.07;16.17;;;;;;;;;;5070740;28;20483;-66
2020/12/10 07:31:53;;;;;;;18.87;16.27;;;20.10;99.90;;;;;;5072395;28;20448;-66
2020/12/10 07:34:20;;;;;;;17.37;14.90;;;20.00;99.90;;;;;;5070494;28;20839;-66
2020/12/10 07:36:47;;;;;;;17.80;15.80;;;;;;;;;;5070781;28;20449;-66
2020/12/10 07:39:16;;;;;;;17.37;15.17;;;;;;;;;;5068933;28;20479;-66
2020/12/10 07:41:43;;;;;;;19.80;16.47;;;;;;;;;;5068663;28;20485;-67
2020/12/10 07:44:09;;;;;;;17.27;15.47;;;;;;;;;;5071361;28;20450;-66
2020/12/10 07:46:36;;;;;;;17.40;14.83;;;;;;;;;;5071080;28;20467;-66
2020/12/10 07:49:03;;;;;;;18.90;16.90;;;;;;;;;;5064940;28;20502;-66
2020/12/10 07:51:30;;;;;;;19.83;17.77;;;;;;;;;;5065854;28;20482;-66
2020/12/10 07:54:02;;;;;;;21.07;16.73;;;;;;;;;;5067007;28;20471;-67
2020/12/10 07:56:30;;;;;;;19.47;17.37;;;;;;;;;;5064540;28;20467;-67
2020/12/10 07:59:03;;;;;;;20.00;18.00;;;;;;;;;;5069675;28;21021;-67
2020/12/10 08:01:34;;;;;;;22.17;18.63;;;;;;;;;;5069645;28;21000;-66
2020/12/10 08:04:06;;;;;;;19.13;17.00;;;;;;;;;;5070859;28;20942;-66
2020/12/10 08:06:33;;;;;;;20.13;17.73;;;;;;;;;;5070461;28;20443;-66
2020/12/10 08:09:01;;;;;;;21.00;18.60;;;;;;;;;;5061183;28;20478;-65
2020/12/10 08:11:27;;;;;;;22.13;18.70;;;;;;;;;;5060939;28;20479;-67
2020/12/10 08:13:58;;;;;;;22.27;17.90;;;;;;;;;;5071330;28;20950;-66
2020/12/10 08:16:36;;;;;;;22.50;19.63;;;;;;;;;;5056910;28;20943;-66
2020/12/10 08:19:10;;;;;;;21.40;19.13;;;;;;;;;;5059881;28;20474;-66
2020/12/10 08:21:38;;;;;;;23.07;19.67;;;;;;;;;;5071042;28;20446;-68
2020/12/10 08:24:05;;;;;;;21.67;19.30;;;;;;;;;;5072033;28;20455;-66
2020/12/10 08:26:31;;;;;;;48.70;43.07;;;;;;;;;;5060698;28;20460;-65
2020/12/10 08:28:58;;;;;;;66.27;49.10;;;;;;;;;;5070556;28;20475;-63
2020/12/10 08:31:25;;;;;;;72.47;51.30;;;;;;;;;;5071890;28;20482;-62
2020/12/10 08:33:52;;;;;;;84.77;54.10;;;;;;;;;;5070215;28;20463;-62
2020/12/10 08:36:29;;;;;;;80.20;54.00;;;;;;;;;;5071407;28;20446;-61
2020/12/10 08:38:57;;;;;;;88.20;56.63;;;;;;;;;;5064482;28;20492;-61
2020/12/10 08:41:24;;;;;;;87.43;54.83;;;;;;;;;;5053881;28;20442;-62
2020/12/10 08:43:54;;;;;;;90.20;59.17;;;;;;;;;;5071155;28;20969;-62
2020/12/10 08:46:21;;;;;;;90.67;56.00;;;;;;;;;;5071730;28;20459;-63
2020/12/10 08:48:47;;;;;;;47.67;27.83;;;;;;;;;;5060872;28;20481;-62
2020/12/10 08:51:14;;;;;;;38.40;26.93;;;;;;;;;;5066655;28;20585;-63
2020/12/10 08:53:45;;;;;;;35.50;25.50;;;;;;;;;;5074389;28;20558;-65
2020/12/10 08:56:22;;;;;;;36.23;25.10;;;;;;;;;;5075427;28;20445;-65
2020/12/10 08:58:49;;;;;;;29.90;22.53;;;;;;;;;;5075009;28;20475;-65
2020/12/10 09:01:15;;;;;;;29.63;22.17;;;;;;;;;;5074458;28;20443;-65
2020/12/10 09:03:42;;;;;;;28.00;23.00;;;;;;;;;;5074526;28;20446;-65
2020/12/10 09:06:09;;;;;;;28.77;21.73;;;;;;;;;;5074458;28;20457;-65
2020/12/10 09:08:35;;;;;;;25.43;21.97;;;;;;;;;;5074616;28;20466;-65
2020/12/10 09:11:02;;;;;;;25.57;19.50;;;;;;;;;;5074457;28;20997;-65
2020/12/10 09:13:30;;;;;;;28.83;23.37;;;;;;;;;;5073659;28;20442;-65
2020/12/10 09:15:56;;;;;;;27.63;23.00;;;;;;;;;;5074352;28;20871;-66
2020/12/10 09:18:23;;;;;;;23.17;20.77;;;;;;;;;;5059080;28;20471;-66
2020/12/10 09:20:50;;;;;;;24.67;20.80;;;;;;;;;;5074786;28;20474;-65
2020/12/10 09:23:17;;;;;;;23.70;20.37;;;;;;;;;;5074396;28;20465;-65
2020/12/10 09:25:43;;;;;;;22.77;20.27;;;;;;;;;;5073677;28;20446;-65
2020/12/10 09:28:10;;;;;;;25.03;20.93;;;;;;;;;;5073493;28;20447;-65
2020/12/10 09:30:38;;;;;;;24.57;20.13;;;;;;;;;;5066594;28;20482;-66
2020/12/10 09:33:05;;;;;;;42.73;38.43;;;;;;;;;;5073114;28;20478;-61
2020/12/10 09:35:31;;;;;;;53.03;44.70;;;;;;;;;;5072518;28;20972;-62
2020/12/10 09:38:01;;;;;;;54.20;44.30;;;;;;;;;;5074820;28;20827;-61
2020/12/10 09:40:28;;;;;;;56.10;44.53;;;;;;;;;;5074327;28;20447;-62
2020/12/10 09:42:54;;;;;;;59.70;43.70;;;;;;;;;;5076071;28;20811;-62
2020/12/10 09:45:21;;;;;;;57.97;46.60;;;;;;;;;;5068812;28;20451;-61
2020/12/10 09:47:48;;;;;;;63.57;46.57;;;;;;;;;;5054343;28;20954;-61
2020/12/10 09:50:22;;;;;;;64.23;46.70;;;;;;;;;;5069320;28;20490;-63
2020/12/10 09:52:55;;;;;;;62.93;46.10;;;;;;;;;;5073897;28;20854;-62
2020/12/10 09:55:38;;;;;;;64.90;46.80;;;;;;;;;;5072939;28;20835;-63
2020/12/10 09:58:04;;;;;;;63.50;45.57;;;;;;;;;;5059226;28;20464;-63
2020/12/10 10:00:31;;;;;;;58.70;45.23;;;;;;;;;;5071441;28;20917;-62
2020/12/10 10:02:59;;;;;;;65.13;48.80;;;;;;;;;;5073659;28;20443;-63
2020/12/10 10:05:25;;;;;;;61.00;46.70;;;;;;;;;;5073254;28;20495;-63
2020/12/10 10:07:52;;;;;;;68.27;47.27;;;;;;;;;;5073559;28;20825;-63
2020/12/10 10:10:18;;;;;;;69.77;48.83;;;;;;;;;;5058932;28;20491;-63
2020/12/10 10:12:45;;;;;;;73.10;49.80;;;;;;;;;;5062525;28;20954;-62
2020/12/10 10:15:12;;;;;;;73.23;49.70;;;;;;;;;;5068170;28;20470;-62
2020/12/10 10:17:38;;;;;;;74.20;50.07;;;;;;;;;;5072220;28;20516;-63
2020/12/10 10:20:06;;;;;;;69.27;48.53;;;;;;;;;;5073515;28;20465;-63
2020/12/10 10:22:32;;;;;;;77.33;53.27;;;;;;;;;;5071194;28;20450;-64
2020/12/10 10:24:59;;;;;;;72.03;51.50;;;;;;;;;;5070594;28;20455;-63
2020/12/10 10:27:25;;;;;;;76.93;52.70;;;;;;;;;;5074074;28;20443;-63
2020/12/10 10:29:52;;;;;;;76.60;53.00;;;;;;;;;;5072880;28;20843;-63
2020/12/10 10:32:19;;;;;;;81.57;54.23;;;;;;;;;;5072784;28;20458;-61
2020/12/10 10:34:45;;;;;;;74.50;52.20;;;;;;;;;;5070043;28;20465;-62
2020/12/10 10:37:13;;;;;;;83.60;54.30;;;;;;;;;;5064895;28;20461;-61
2020/12/10 10:39:39;;;;;;;84.70;55.77;;;;;;;;;;5073398;28;20477;-61
2020/12/10 10:42:06;;;;;;;79.50;56.33;;;;;;;;;;5073890;28;20976;-62
2020/12/10 10:44:33;;;;;;;35.40;21.70;;;;;;;;;;5073363;28;20453;-63
2020/12/10 10:46:59;;;;;;;69.70;51.03;;;;;;;;;;5064771;28;20449;-62
2020/12/10 10:49:26;;;;;;;75.27;54.60;;;;;;;;;;5064531;28;20486;-60
2020/12/10 10:51:53;;;;;;;85.07;57.87;;;;;;;;;;5071632;28;20482;-62
2020/12/10 10:54:20;;;;;;;80.33;53.83;;;;;;;;;;5072237;28;20457;-62
2020/12/10 10:56:47;;;;;;;79.50;53.70;;;;;;;;;;5061592;28;20458;-62
2020/12/10 10:59:14;;;;;;;89.40;58.93;;;;;;;;;;5067163;28;20482;-62
2020/12/10 11:01:41;;;;;;;86.20;57.83;;;;;;;;;;5060549;28;20448;-62
2020/12/10 11:04:07;;;;;;;94.77;58.30;;;;;;;;;;5053508;28;20985;-65
2020/12/10 11:06:34;;;;;;;95.17;61.53;;;;;;;;;;5060076;28;20443;-70
2020/12/10 11:09:01;;;;;;;82.53;55.80;;;;;;;;;;5072779;28;20865;-67
2020/12/10 11:11:28;;;;;;;84.10;54.37;;;;;;;;;;5071545;28;20475;-66
2020/12/10 11:13:55;;;;;;;81.57;53.83;;;;;;;;;;5071135;28;20459;-66
2020/12/10 11:16:22;;;;;;;85.53;56.70;;;;;;;;;;5072933;28;20948;-66
2020/12/10 11:18:48;;;;;;;81.27;57.90;;;;;;;;;;5064303;28;20460;-66
2020/12/10 11:21:15;;;;;;;80.23;53.83;;;;;;;;;;5071199;28;20455;-66
2020/12/10 11:23:42;;;;;;;90.13;59.40;;;;;;;;;;5068124;28;20501;-66
2020/12/10 11:26:09;;;;;;;96.33;60.80;;;;;;;;;;5052657;28;20449;-66
2020/12/10 11:28:36;;;;;;;101.80;63.10;;;;;;;;;;5052330;28;21012;-66
2020/12/10 11:31:03;;;;;;;91.00;59.43;;;;;;;;;;5069069;28;20588;-66
2020/12/10 11:33:29;;;;;;;97.20;58.23;;;;;;;;;;5070701;28;20458;-67
2020/12/10 11:35:56;;;;;;;89.03;56.93;;;;;;;;;;5052249;28;20448;-66
2020/12/10 11:38:23;;;;;;;90.63;60.30;;;;;;;;;;5059945;28;20467;-66
2020/12/10 11:40:49;;;;;;;107.57;62.30;;;;;;;;;;5072388;28;20439;-66
2020/12/10 11:43:17;;;;;;;97.50;62.43;;;;;;;;;;5072018;28;20454;-66
2020/12/10 11:45:44;;;;;;;96.27;57.33;;;;;;;;;;5071609;28;20490;-66
2020/12/10 11:48:11;;;;;;;94.30;58.17;;;;;;;;;;5058190;28;20451;-66
2020/12/10 11:50:38;;;;;;;102.37;58.53;;;;;;;;;;5052195;28;20479;-66
2020/12/10 11:53:05;;;;;;;98.77;60.20;;;;;;;;;;5064278;28;20463;-66
2020/12/10 11:55:32;;;;;;;98.07;58.70;;;;;;;;;;5070999;28;20459;-66
2020/12/10 11:57:58;;;;;;;92.57;59.00;;;;;;;;;;5072089;28;20451;-66
2020/12/10 12:00:25;;;;;;;90.83;58.43;;;;;;;;;;5070363;28;20462;-66
2020/12/10 12:02:52;;;;;;;99.33;61.57;;;;;;;;;;5070575;28;20814;-66
2020/12/10 12:05:20;;;;;;;106.60;61.37;;;;;;;;;;5064368;28;20451;-66
2020/12/10 12:07:47;;;;;;;38.33;24.40;;;;;;;;;;5072396;28;20451;-71
2020/12/10 12:10:15;;;;;;;89.07;56.27;;;;;;;;;;5069493;28;20483;-70
2020/12/10 12:12:41;;;;;;;93.13;58.17;;;;;;;;;;5067679;28;20466;-68
2020/12/10 12:15:08;;;;;;;91.17;56.20;;;;;;;;;;5072169;28;20447;-68
2020/12/10 12:17:35;;;;;;;88.17;54.77;;;;;;;;;;5063259;28;20959;-69
2020/12/10 12:20:02;;;;;;;89.00;56.47;;;;;;;;;;5071525;28;20484;-67
2020/12/10 12:22:29;;;;;;;84.73;55.17;;;;;;;;;;5073560;28;20447;-68
2020/12/10 12:24:56;;;;;;;75.53;52.87;;;;;;;;;;5076029;28;20451;-68
2020/12/10 12:27:22;;;;;;;75.13;51.33;;;;;;;;;;5077477;28;20450;-68
2020/12/10 12:29:49;;;;;;;70.53;50.27;;;;;;;;;;5069644;28;20570;-67
2020/12/10 12:32:16;;;;;;;73.27;49.80;;;;;;;;;;5076060;28;20997;-65
2020/12/10 12:34:42;;;;;;;69.30;50.10;;;;;;;;;;5075104;28;20447;-66
2020/12/10 12:37:10;;;;;;;68.13;48.80;;;;;;;;;;5074607;28;20454;-65
2020/12/10 12:39:36;;;;;;;62.47;45.47;;;;;;;;;;5074292;28;20470;-65
2020/12/10 12:42:06;;;;;;;63.60;45.53;;;;;;;;;;5074875;28;20454;-65
2020/12/10 12:44:33;;;;;;;55.63;41.57;;;;;;;;;;5075231;28;20450;-67
2020/12/10 12:47:00;;;;;;;68.60;46.40;;;;;;;;;;5075598;28;20458;-65
2020/12/10 12:49:26;;;;;;;65.10;48.47;;;;;;;;;;5074709;28;20474;-65
2020/12/10 12:51:53;;;;;;;63.93;46.20;;;;;;;;;;5075618;28;20508;-66
2020/12/10 12:54:21;;;;;;;59.10;48.17;;;;;;;;;;5074901;28;20469;-65
2020/12/10 12:56:47;;;;;;;63.00;47.93;;;;;;;;;;5074536;28;20965;-67
2020/12/10 12:59:14;;;;;;;69.40;48.47;;;;;;;;;;5076028;28;20907;-65
2020/12/10 13:01:41;;;;;;;65.10;45.60;;;;;;;;;;5068435;28;21030;-65
2020/12/10 13:04:11;;;;;;;67.87;49.77;;;;;;;;;;5055069;28;20440;-65
2020/12/10 13:06:38;;;;;;;72.27;49.90;;;;;;;;;;5068849;28;20487;-65
2020/12/10 13:09:05;;;;;;;66.70;47.07;;;;;;;;;;5075213;28;20459;-65
2020/12/10 13:11:33;;;;;;;67.10;47.60;;;;;;;;;;5074277;28;20482;-64
2020/12/10 13:14:00;;;;;;;63.00;45.60;;;;;;;;;;5073353;28;20450;-66
2020/12/10 13:16:26;;;;;;;73.40;50.53;;;;;;;;;;5066833;28;20475;-65
2020/12/10 13:18:53;;;;;;;72.47;50.20;;;;;;;;;;5068593;28;20490;-65
2020/12/10 13:21:21;;;;;;;70.17;48.70;;;;;;;;;;5054958;28;20539;-66
2020/12/10 13:23:47;;;;;;;72.57;51.33;;;;;;;;;;5063659;28;20808;-65
2020/12/10 13:26:14;;;;;;;74.20;50.57;;;;;;;;;;5074391;28;20459;-67
2020/12/10 13:28:44;;;;;;;79.00;49.97;;;;;;;;;;5074106;28;20993;-65
2020/12/10 13:31:10;;;;;;;78.17;51.40;;;;;;;;;;5072969;28;20478;-64
2020/12/10 13:33:37;;;;;;;76.83;51.60;;;;;;;;;;5064576;28;20447;-66
2020/12/10 13:36:08;;;;;;;82.70;53.77;;;;;;;;;;5073644;28;20454;-65
2020/12/10 13:38:35;;;;;;;77.83;53.70;;;;;;;;;;5072173;28;20462;-64
2020/12/10 13:41:01;;;;;;;90.00;54.47;;;;;;;;;;5069347;28;20443;-65
2020/12/10 13:43:28;;;;;;;78.23;54.80;;;;;;;;;;5070918;28;20451;-65
2020/12/10 13:45:56;;;;;;;88.03;58.03;;;;;;;;;;5071922;28;20465;-65
2020/12/10 13:48:22;;;;;;;91.67;57.73;;;;;;;;;;5060860;28;20487;-65
2020/12/10 13:50:49;;;;;;;83.27;56.47;;;;;;;;;;5073928;28;20491;-68
2020/12/10 13:53:15;;;;;;;80.90;46.70;;;;;;;;;;5068872;28;20469;-65
2020/12/10 13:55:43;;;;;;;97.70;59.63;;;;;;;;;;5072725;28;20957;-66
2020/12/10 13:58:10;;;;;;;96.97;58.53;;;;;;;;;;5074368;28;20439;-66
2020/12/10 14:00:36;;;;;;;92.37;55.80;;;;;;;;;;5074224;28;20441;-66
2020/12/10 14:03:04;;;;;;;107.70;64.43;;;;;;;;;;5074209;28;20455;-65
2020/12/10 14:05:30;;;;;;;95.13;60.10;;;;;;;;;;5072916;28;20454;-63
2020/12/10 14:07:57;;;;;;;84.20;55.30;;;;;;;;;;5073586;28;20454;-64
2020/12/10 14:10:24;;;;;;;84.03;54.53;;;;;;;;;;5073878;28;20481;-64
2020/12/10 14:12:50;;;;;;;86.23;54.77;;;;;;;;;;5066040;28;20457;-64
2020/12/10 14:15:17;;;;;;;85.57;54.90;;;;;;;;;;5072881;28;20469;-62